NFFN/NAN METAR and TAF weather

Enter ICAO airport designator
Station Type Date Time Source
NFFN METAR 2020/11/25 22:00 UTC NOAA

NFFN 252200Z 29009KT 9999 SCT030 29/23 Q1010 NOSIG


Station Type Date Time Source
NFFN Decoded METAR 2020/11/25 22:00 UTC NOAA

Nandi, Fiji (NFFN) 17-45S 177-27E 18M
Nov 25, 2020 - 05:00 PM EST / 2020.11.25 2200 UTC
Wind: from the WNW (290 degrees) at 10 MPH (9 KT):0
Visibility: greater than 7 mile(s):0
Sky conditions: partly cloudy
Temperature: 84 F (29 C)
Dew Point: 73 F (23 C)
Relative Humidity: 70%
Pressure (altimeter): 29.83 in. Hg (1010 hPa)
ob: NFFN 252200Z 29009KT 9999 SCT030 29/23 Q1010 NOSIG
cycle: 22

Station Type Date Time Source
NFFN TAF 2020/11/25 18:20 UTC NOAA

TAF NFFN 251714Z 2518/2618 12007KT 9999 FEW030 SCT100
BECMG 2521/2523 31010KT PROB40
TEMPO 2602/2608 5000 TSRA BKN015 FEW018CB
BECMG 2604/2606 09006KT PROB30
TEMPO 2608/2612 5000 SHRA BKN015

Example: see airport list